Terminal Aerodrome Forecast
Issued by NWS

Home | Current Version | Previous Version | Text Only | Print | Product List | Glossary On
Versions: 1 2 3 4 5 6 7 8 9 10 11 12 13 14 15 16 17 18 19
783
FTUS46 KMFR 251139 CCB
TAFOTH
TAF COR
KOTH 251139Z 2512/2612 14005KT 5SM BR BCFG SCT002
     FM251500 VRB03KT P6SM SKC
     FM251800 33008KT P6SM SKC
     FM252000 35012G20KT P6SM SKC
     FM260300 36009KT P6SM SKC
     FM260800 VRB03KT 2SM BR OVC005
      AMD NOT SKED=

USA.gov is the U.S. government's official web portal to all federal, state and local government web resources and services.